sensor_id;sensor_type;location;lat;lon;timestamp;P1;durP1;ratioP1;P2;durP2;ratioP2
3491;SDS011;1760;52.480;13.422;2023-11-19T00:00:04;14.00;;;4.73;;
3491;SDS011;1760;52.480;13.422;2023-11-19T00:02:36;5.73;;;4.87;;
3491;SDS011;1760;52.480;13.422;2023-11-19T00:05:04;11.37;;;6.47;;
3491;SDS011;1760;52.480;13.422;2023-11-19T00:07:34;10.20;;;5.80;;
3491;SDS011;1760;52.480;13.422;2023-11-19T00:10:01;7.03;;;5.10;;
3491;SDS011;1760;52.480;13.422;2023-11-19T00:12:35;7.83;;;5.17;;
3491;SDS011;1760;52.480;13.422;2023-11-19T00:15:03;8.37;;;6.33;;
3491;SDS011;1760;52.480;13.422;2023-11-19T00:17:30;6.93;;;4.60;;
3491;SDS011;1760;52.480;13.422;2023-11-19T00:19:57;8.50;;;5.70;;
3491;SDS011;1760;52.480;13.422;2023-11-19T00:22:26;9.00;;;5.97;;
3491;SDS011;1760;52.480;13.422;2023-11-19T00:24:53;7.73;;;5.40;;
3491;SDS011;1760;52.480;13.422;2023-11-19T00:27:19;8.30;;;5.53;;
3491;SDS011;1760;52.480;13.422;2023-11-19T00:29:46;5.97;;;4.43;;
3491;SDS011;1760;52.480;13.422;2023-11-19T00:32:13;12.00;;;6.00;;
3491;SDS011;1760;52.480;13.422;2023-11-19T00:34:40;8.57;;;4.87;;
3491;SDS011;1760;52.480;13.422;2023-11-19T00:37:10;8.77;;;4.73;;
3491;SDS011;1760;52.480;13.422;2023-11-19T00:39:38;5.20;;;4.70;;
3491;SDS011;1760;52.480;13.422;2023-11-19T00:42:05;8.97;;;5.40;;
3491;SDS011;1760;52.480;13.422;2023-11-19T00:44:32;8.47;;;5.10;;
3491;SDS011;1760;52.480;13.422;2023-11-19T00:46:59;10.47;;;4.77;;
3491;SDS011;1760;52.480;13.422;2023-11-19T00:49:26;6.00;;;4.93;;
3491;SDS011;1760;52.480;13.422;2023-11-19T00:51:52;4.87;;;4.37;;
3491;SDS011;1760;52.480;13.422;2023-11-19T00:54:19;7.53;;;4.63;;
3491;SDS011;1760;52.480;13.422;2023-11-19T00:56:48;7.30;;;5.40;;
3491;SDS011;1760;52.480;13.422;2023-11-19T00:59:17;6.40;;;4.73;;
3491;SDS011;1760;52.480;13.422;2023-11-19T01:01:44;5.13;;;4.20;;
3491;SDS011;1760;52.480;13.422;2023-11-19T01:04:13;6.40;;;4.40;;
3491;SDS011;1760;52.480;13.422;2023-11-19T01:06:39;7.97;;;4.43;;
3491;SDS011;1760;52.480;13.422;2023-11-19T01:09:07;11.40;;;5.07;;
3491;SDS011;1760;52.480;13.422;2023-11-19T01:11:34;6.60;;;4.17;;
3491;SDS011;1760;52.480;13.422;2023-11-19T01:14:03;5.30;;;4.50;;
3491;SDS011;1760;52.480;13.422;2023-11-19T01:16:30;9.63;;;4.40;;
3491;SDS011;1760;52.480;13.422;2023-11-19T01:18:57;7.00;;;4.97;;
3491;SDS011;1760;52.480;13.422;2023-11-19T01:21:23;5.30;;;4.50;;
3491;SDS011;1760;52.480;13.422;2023-11-19T01:23:51;6.50;;;4.13;;
3491;SDS011;1760;52.480;13.422;2023-11-19T01:26:18;6.57;;;4.97;;
3491;SDS011;1760;52.480;13.422;2023-11-19T01:28:45;10.93;;;4.57;;
3491;SDS011;1760;52.480;13.422;2023-11-19T01:31:16;7.00;;;4.70;;
3491;SDS011;1760;52.480;13.422;2023-11-19T01:33:42;7.40;;;4.80;;
3491;SDS011;1760;52.480;13.422;2023-11-19T01:36:12;6.97;;;5.17;;
3491;SDS011;1760;52.480;13.422;2023-11-19T01:38:39;7.07;;;4.30;;
3491;SDS011;1760;52.480;13.422;2023-11-19T01:41:06;4.87;;;4.10;;
3491;SDS011;1760;52.480;13.422;2023-11-19T01:43:36;4.83;;;3.40;;
3491;SDS011;1760;52.480;13.422;2023-11-19T01:46:06;5.67;;;5.07;;
3491;SDS011;1760;52.480;13.422;2023-11-19T01:48:36;8.27;;;4.60;;
3491;SDS011;1760;52.480;13.422;2023-11-19T01:51:06;7.80;;;4.77;;
3491;SDS011;1760;52.480;13.422;2023-11-19T01:53:34;6.20;;;3.73;;
3491;SDS011;1760;52.480;13.422;2023-11-19T01:56:05;7.67;;;4.67;;
3491;SDS011;1760;52.480;13.422;2023-11-19T01:58:35;5.13;;;3.67;;
3491;SDS011;1760;52.480;13.422;2023-11-19T02:01:04;8.50;;;5.83;;
3491;SDS011;1760;52.480;13.422;2023-11-19T02:03:32;6.53;;;4.33;;
3491;SDS011;1760;52.480;13.422;2023-11-19T02:06:01;6.00;;;4.40;;
3491;SDS011;1760;52.480;13.422;2023-11-19T02:08:28;6.37;;;4.87;;
3491;SDS011;1760;52.480;13.422;2023-11-19T02:10:56;8.33;;;4.23;;
3491;SDS011;1760;52.480;13.422;2023-11-19T02:13:23;9.93;;;4.60;;
3491;SDS011;1760;52.480;13.422;2023-11-19T02:15:51;7.73;;;3.90;;
3491;SDS011;1760;52.480;13.422;2023-11-19T02:18:21;6.13;;;4.70;;
3491;SDS011;1760;52.480;13.422;2023-11-19T02:20:49;6.83;;;4.33;;
3491;SDS011;1760;52.480;13.422;2023-11-19T02:23:18;8.17;;;4.03;;
3491;SDS011;1760;52.480;13.422;2023-11-19T02:25:47;6.20;;;4.27;;
3491;SDS011;1760;52.480;13.422;2023-11-19T02:28:24;9.07;;;4.30;;
3491;SDS011;1760;52.480;13.422;2023-11-19T02:30:52;4.90;;;3.60;;
3491;SDS011;1760;52.480;13.422;2023-11-19T02:33:19;5.00;;;3.73;;
3491;SDS011;1760;52.480;13.422;2023-11-19T02:35:46;7.30;;;5.30;;
3491;SDS011;1760;52.480;13.422;2023-11-19T02:38:13;5.63;;;3.70;;
3491;SDS011;1760;52.480;13.422;2023-11-19T02:40:40;5.43;;;4.27;;
3491;SDS011;1760;52.480;13.422;2023-11-19T02:43:07;7.07;;;4.10;;
3491;SDS011;1760;52.480;13.422;2023-11-19T02:45:36;6.43;;;4.33;;
3491;SDS011;1760;52.480;13.422;2023-11-19T02:48:03;6.93;;;4.40;;
3491;SDS011;1760;52.480;13.422;2023-11-19T02:50:31;7.93;;;4.80;;
3491;SDS011;1760;52.480;13.422;2023-11-19T02:52:58;8.80;;;4.10;;
3491;SDS011;1760;52.480;13.422;2023-11-19T02:55:26;6.70;;;3.97;;
3491;SDS011;1760;52.480;13.422;2023-11-19T02:57:56;5.70;;;4.07;;
3491;SDS011;1760;52.480;13.422;2023-11-19T03:00:24;6.70;;;4.10;;
3491;SDS011;1760;52.480;13.422;2023-11-19T03:03:00;6.40;;;4.20;;
3491;SDS011;1760;52.480;13.422;2023-11-19T03:05:35;5.40;;;3.50;;
3491;SDS011;1760;52.480;13.422;2023-11-19T03:08:02;7.00;;;4.40;;
3491;SDS011;1760;52.480;13.422;2023-11-19T03:10:29;5.00;;;4.03;;
3491;SDS011;1760;52.480;13.422;2023-11-19T03:12:56;4.50;;;3.40;;
3491;SDS011;1760;52.480;13.422;2023-11-19T03:15:24;4.97;;;3.13;;
3491;SDS011;1760;52.480;13.422;2023-11-19T03:17:51;7.03;;;4.53;;
3491;SDS011;1760;52.480;13.422;2023-11-19T03:20:19;6.40;;;4.00;;
3491;SDS011;1760;52.480;13.422;2023-11-19T03:22:48;6.13;;;4.43;;
3491;SDS011;1760;52.480;13.422;2023-11-19T03:25:15;5.00;;;3.83;;
3491;SDS011;1760;52.480;13.422;2023-11-19T03:27:43;4.17;;;3.57;;
3491;SDS011;1760;52.480;13.422;2023-11-19T03:30:10;4.67;;;3.47;;
3491;SDS011;1760;52.480;13.422;2023-11-19T03:32:37;5.07;;;3.20;;
3491;SDS011;1760;52.480;13.422;2023-11-19T03:35:05;3.77;;;3.30;;
3491;SDS011;1760;52.480;13.422;2023-11-19T03:37:35;5.60;;;4.27;;
3491;SDS011;1760;52.480;13.422;2023-11-19T03:40:02;6.13;;;3.80;;
3491;SDS011;1760;52.480;13.422;2023-11-19T03:42:30;6.97;;;4.10;;
3491;SDS011;1760;52.480;13.422;2023-11-19T03:44:57;6.70;;;4.43;;
3491;SDS011;1760;52.480;13.422;2023-11-19T03:47:25;4.97;;;3.30;;
3491;SDS011;1760;52.480;13.422;2023-11-19T03:49:53;5.07;;;3.33;;
3491;SDS011;1760;52.480;13.422;2023-11-19T03:52:20;8.37;;;5.00;;
3491;SDS011;1760;52.480;13.422;2023-11-19T03:54:48;9.00;;;4.90;;
3491;SDS011;1760;52.480;13.422;2023-11-19T03:57:15;5.50;;;4.97;;
3491;SDS011;1760;52.480;13.422;2023-11-19T03:59:42;7.00;;;4.13;;
3491;SDS011;1760;52.480;13.422;2023-11-19T04:02:09;6.00;;;4.53;;
3491;SDS011;1760;52.480;13.422;2023-11-19T04:04:36;6.20;;;4.80;;
3491;SDS011;1760;52.480;13.422;2023-11-19T04:07:03;9.90;;;4.27;;
3491;SDS011;1760;52.480;13.422;2023-11-19T04:09:31;4.43;;;3.93;;
3491;SDS011;1760;52.480;13.422;2023-11-19T04:12:00;11.83;;;4.97;;
3491;SDS011;1760;52.480;13.422;2023-11-19T04:14:27;14.47;;;5.10;;
3491;SDS011;1760;52.480;13.422;2023-11-19T04:16:54;5.03;;;3.93;;
3491;SDS011;1760;52.480;13.422;2023-11-19T04:19:20;7.80;;;5.00;;
3491;SDS011;1760;52.480;13.422;2023-11-19T04:21:48;5.27;;;4.03;;
3491;SDS011;1760;52.480;13.422;2023-11-19T04:24:15;7.03;;;3.90;;
3491;SDS011;1760;52.480;13.422;2023-11-19T04:26:41;8.23;;;5.20;;
3491;SDS011;1760;52.480;13.422;2023-11-19T04:29:11;7.87;;;4.37;;
3491;SDS011;1760;52.480;13.422;2023-11-19T04:31:39;5.43;;;3.80;;
3491;SDS011;1760;52.480;13.422;2023-11-19T04:34:06;7.00;;;5.20;;
3491;SDS011;1760;52.480;13.422;2023-11-19T04:36:34;11.40;;;5.13;;
3491;SDS011;1760;52.480;13.422;2023-11-19T04:39:02;5.40;;;4.00;;
3491;SDS011;1760;52.480;13.422;2023-11-19T04:41:33;7.40;;;4.20;;
3491;SDS011;1760;52.480;13.422;2023-11-19T04:44:02;8.57;;;6.00;;
3491;SDS011;1760;52.480;13.422;2023-11-19T04:46:30;8.97;;;4.03;;
3491;SDS011;1760;52.480;13.422;2023-11-19T04:48:57;4.80;;;3.73;;
3491;SDS011;1760;52.480;13.422;2023-11-19T04:51:24;10.80;;;5.20;;
3491;SDS011;1760;52.480;13.422;2023-11-19T04:53:50;12.37;;;4.77;;
3491;SDS011;1760;52.480;13.422;2023-11-19T04:56:17;7.53;;;5.40;;
3491;SDS011;1760;52.480;13.422;2023-11-19T04:58:45;8.10;;;4.80;;
3491;SDS011;1760;52.480;13.422;2023-11-19T05:01:13;6.43;;;4.80;;
3491;SDS011;1760;52.480;13.422;2023-11-19T05:03:44;6.33;;;4.40;;
3491;SDS011;1760;52.480;13.422;2023-11-19T05:06:11;7.90;;;4.93;;
3491;SDS011;1760;52.480;13.422;2023-11-19T05:08:38;10.33;;;6.27;;
3491;SDS011;1760;52.480;13.422;2023-11-19T05:11:05;11.83;;;5.60;;
3491;SDS011;1760;52.480;13.422;2023-11-19T05:13:32;7.73;;;4.80;;
3491;SDS011;1760;52.480;13.422;2023-11-19T05:15:59;7.37;;;4.67;;
3491;SDS011;1760;52.480;13.422;2023-11-19T05:18:26;8.47;;;4.70;;
3491;SDS011;1760;52.480;13.422;2023-11-19T05:20:53;7.13;;;4.80;;
3491;SDS011;1760;52.480;13.422;2023-11-19T05:23:23;10.93;;;5.37;;
3491;SDS011;1760;52.480;13.422;2023-11-19T05:25:49;8.00;;;4.93;;
3491;SDS011;1760;52.480;13.422;2023-11-19T05:28:16;11.17;;;5.27;;
3491;SDS011;1760;52.480;13.422;2023-11-19T05:30:43;10.07;;;5.20;;
3491;SDS011;1760;52.480;13.422;2023-11-19T05:33:10;11.37;;;5.23;;
3491;SDS011;1760;52.480;13.422;2023-11-19T05:35:37;7.93;;;5.00;;
3491;SDS011;1760;52.480;13.422;2023-11-19T05:38:05;9.00;;;5.97;;
3491;SDS011;1760;52.480;13.422;2023-11-19T05:40:32;7.70;;;5.00;;
3491;SDS011;1760;52.480;13.422;2023-11-19T05:42:59;6.10;;;4.90;;
3491;SDS011;1760;52.480;13.422;2023-11-19T05:45:26;10.23;;;5.93;;
3491;SDS011;1760;52.480;13.422;2023-11-19T05:47:52;6.30;;;4.70;;
3491;SDS011;1760;52.480;13.422;2023-11-19T05:50:19;6.10;;;5.00;;
3491;SDS011;1760;52.480;13.422;2023-11-19T05:52:46;7.70;;;5.50;;
3491;SDS011;1760;52.480;13.422;2023-11-19T05:55:15;6.67;;;4.60;;
3491;SDS011;1760;52.480;13.422;2023-11-19T05:57:42;10.50;;;5.40;;
3491;SDS011;1760;52.480;13.422;2023-11-19T06:00:12;7.80;;;4.70;;
3491;SDS011;1760;52.480;13.422;2023-11-19T06:02:40;5.73;;;5.03;;
3491;SDS011;1760;52.480;13.422;2023-11-19T06:05:07;8.37;;;4.63;;
3491;SDS011;1760;52.480;13.422;2023-11-19T06:07:35;7.67;;;5.13;;
3491;SDS011;1760;52.480;13.422;2023-11-19T06:10:04;7.80;;;5.33;;
3491;SDS011;1760;52.480;13.422;2023-11-19T06:12:36;9.60;;;6.40;;
3491;SDS011;1760;52.480;13.422;2023-11-19T06:15:04;8.40;;;5.00;;
3491;SDS011;1760;52.480;13.422;2023-11-19T06:17:33;9.90;;;5.30;;
3491;SDS011;1760;52.480;13.422;2023-11-19T06:20:02;7.37;;;5.80;;
3491;SDS011;1760;52.480;13.422;2023-11-19T06:22:30;7.03;;;5.10;;
3491;SDS011;1760;52.480;13.422;2023-11-19T06:24:57;8.20;;;4.90;;
3491;SDS011;1760;52.480;13.422;2023-11-19T06:27:25;8.90;;;5.37;;
3491;SDS011;1760;52.480;13.422;2023-11-19T06:29:53;8.80;;;5.60;;
3491;SDS011;1760;52.480;13.422;2023-11-19T06:32:20;9.30;;;5.07;;
3491;SDS011;1760;52.480;13.422;2023-11-19T06:34:47;7.30;;;4.97;;
3491;SDS011;1760;52.480;13.422;2023-11-19T06:37:14;7.57;;;5.03;;
3491;SDS011;1760;52.480;13.422;2023-11-19T06:39:42;6.73;;;4.80;;
3491;SDS011;1760;52.480;13.422;2023-11-19T06:42:09;10.53;;;6.00;;
3491;SDS011;1760;52.480;13.422;2023-11-19T06:44:41;7.17;;;4.90;;
3491;SDS011;1760;52.480;13.422;2023-11-19T06:47:09;9.30;;;6.70;;
3491;SDS011;1760;52.480;13.422;2023-11-19T06:49:37;8.87;;;5.63;;
3491;SDS011;1760;52.480;13.422;2023-11-19T06:52:04;7.83;;;6.40;;
3491;SDS011;1760;52.480;13.422;2023-11-19T06:54:31;6.97;;;4.33;;
3491;SDS011;1760;52.480;13.422;2023-11-19T06:56:58;7.13;;;4.50;;
3491;SDS011;1760;52.480;13.422;2023-11-19T06:59:25;7.73;;;4.60;;
3491;SDS011;1760;52.480;13.422;2023-11-19T07:01:52;15.53;;;5.80;;
3491;SDS011;1760;52.480;13.422;2023-11-19T07:04:20;8.40;;;5.00;;
3491;SDS011;1760;52.480;13.422;2023-11-19T07:06:49;6.20;;;4.13;;
3491;SDS011;1760;52.480;13.422;2023-11-19T07:09:17;5.90;;;4.30;;
3491;SDS011;1760;52.480;13.422;2023-11-19T07:11:44;7.17;;;5.40;;
3491;SDS011;1760;52.480;13.422;2023-11-19T07:14:11;5.83;;;4.10;;
3491;SDS011;1760;52.480;13.422;2023-11-19T07:16:38;11.77;;;6.20;;
3491;SDS011;1760;52.480;13.422;2023-11-19T07:19:05;8.57;;;6.27;;
3491;SDS011;1760;52.480;13.422;2023-11-19T07:21:34;7.27;;;4.57;;
3491;SDS011;1760;52.480;13.422;2023-11-19T07:24:04;10.57;;;6.67;;
3491;SDS011;1760;52.480;13.422;2023-11-19T07:26:32;12.60;;;5.30;;
3491;SDS011;1760;52.480;13.422;2023-11-19T07:28:59;10.07;;;5.87;;
3491;SDS011;1760;52.480;13.422;2023-11-19T07:31:26;11.07;;;7.63;;
3491;SDS011;1760;52.480;13.422;2023-11-19T07:33:53;10.60;;;7.10;;
3491;SDS011;1760;52.480;13.422;2023-11-19T07:36:19;9.30;;;5.97;;
3491;SDS011;1760;52.480;13.422;2023-11-19T07:38:47;15.37;;;7.77;;
3491;SDS011;1760;52.480;13.422;2023-11-19T07:41:15;8.63;;;5.30;;
3491;SDS011;1760;52.480;13.422;2023-11-19T07:43:43;9.80;;;6.93;;
3491;SDS011;1760;52.480;13.422;2023-11-19T07:46:11;11.00;;;5.00;;
3491;SDS011;1760;52.480;13.422;2023-11-19T07:48:39;5.93;;;4.10;;
3491;SDS011;1760;52.480;13.422;2023-11-19T07:51:07;9.37;;;4.93;;
3491;SDS011;1760;52.480;13.422;2023-11-19T07:53:34;7.00;;;4.40;;
3491;SDS011;1760;52.480;13.422;2023-11-19T07:56:05;7.03;;;5.20;;
3491;SDS011;1760;52.480;13.422;2023-11-19T07:58:32;9.30;;;5.23;;
3491;SDS011;1760;52.480;13.422;2023-11-19T08:00:59;7.30;;;4.87;;
3491;SDS011;1760;52.480;13.422;2023-11-19T08:03:27;8.20;;;5.00;;
3491;SDS011;1760;52.480;13.422;2023-11-19T08:05:59;7.60;;;5.17;;
3491;SDS011;1760;52.480;13.422;2023-11-19T08:08:25;11.60;;;5.97;;
3491;SDS011;1760;52.480;13.422;2023-11-19T08:10:54;5.77;;;4.67;;
3491;SDS011;1760;52.480;13.422;2023-11-19T08:13:23;5.43;;;4.77;;
3491;SDS011;1760;52.480;13.422;2023-11-19T08:15:49;6.27;;;3.97;;
3491;SDS011;1760;52.480;13.422;2023-11-19T08:18:16;7.47;;;5.23;;
3491;SDS011;1760;52.480;13.422;2023-11-19T08:20:44;7.93;;;4.70;;
3491;SDS011;1760;52.480;13.422;2023-11-19T08:23:14;7.20;;;5.07;;
3491;SDS011;1760;52.480;13.422;2023-11-19T08:25:43;7.43;;;5.00;;
3491;SDS011;1760;52.480;13.422;2023-11-19T08:28:10;6.60;;;4.90;;
3491;SDS011;1760;52.480;13.422;2023-11-19T08:30:39;10.13;;;5.57;;
3491;SDS011;1760;52.480;13.422;2023-11-19T08:33:05;7.00;;;4.90;;
3491;SDS011;1760;52.480;13.422;2023-11-19T08:35:32;6.47;;;4.70;;
3491;SDS011;1760;52.480;13.422;2023-11-19T08:37:59;5.87;;;4.10;;
3491;SDS011;1760;52.480;13.422;2023-11-19T08:40:26;10.50;;;5.10;;
3491;SDS011;1760;52.480;13.422;2023-11-19T08:42:54;10.40;;;5.60;;
3491;SDS011;1760;52.480;13.422;2023-11-19T08:45:21;7.47;;;5.27;;
3491;SDS011;1760;52.480;13.422;2023-11-19T08:47:50;10.53;;;5.70;;
3491;SDS011;1760;52.480;13.422;2023-11-19T08:50:16;7.33;;;4.70;;
3491;SDS011;1760;52.480;13.422;2023-11-19T08:52:43;4.37;;;3.97;;
3491;SDS011;1760;52.480;13.422;2023-11-19T08:55:10;8.20;;;5.40;;
3491;SDS011;1760;52.480;13.422;2023-11-19T08:57:38;7.73;;;6.83;;
3491;SDS011;1760;52.480;13.422;2023-11-19T09:00:06;10.40;;;5.90;;
3491;SDS011;1760;52.480;13.422;2023-11-19T09:02:33;7.07;;;4.53;;
3491;SDS011;1760;52.480;13.422;2023-11-19T09:05:03;10.40;;;4.37;;
3491;SDS011;1760;52.480;13.422;2023-11-19T09:07:32;4.67;;;3.37;;
3491;SDS011;1760;52.480;13.422;2023-11-19T09:09:59;5.77;;;3.90;;
3491;SDS011;1760;52.480;13.422;2023-11-19T09:12:26;5.27;;;3.70;;
3491;SDS011;1760;52.480;13.422;2023-11-19T09:14:53;7.73;;;4.40;;
3491;SDS011;1760;52.480;13.422;2023-11-19T09:17:20;6.03;;;3.97;;
3491;SDS011;1760;52.480;13.422;2023-11-19T09:19:47;8.33;;;4.57;;
3491;SDS011;1760;52.480;13.422;2023-11-19T09:22:15;3.77;;;2.73;;
3491;SDS011;1760;52.480;13.422;2023-11-19T09:24:42;9.63;;;4.47;;
3491;SDS011;1760;52.480;13.422;2023-11-19T09:27:09;6.33;;;3.43;;
3491;SDS011;1760;52.480;13.422;2023-11-19T09:29:36;6.80;;;3.87;;
3491;SDS011;1760;52.480;13.422;2023-11-19T09:32:03;3.77;;;3.37;;
3491;SDS011;1760;52.480;13.422;2023-11-19T09:34:31;5.13;;;3.73;;
3491;SDS011;1760;52.480;13.422;2023-11-19T09:37:01;8.60;;;3.57;;
3491;SDS011;1760;52.480;13.422;2023-11-19T09:39:29;5.07;;;3.10;;
3491;SDS011;1760;52.480;13.422;2023-11-19T09:41:56;4.60;;;3.60;;
3491;SDS011;1760;52.480;13.422;2023-11-19T09:44:23;4.07;;;2.80;;
3491;SDS011;1760;52.480;13.422;2023-11-19T09:46:50;5.23;;;2.50;;
3491;SDS011;1760;52.480;13.422;2023-11-19T09:49:18;3.00;;;2.40;;
3491;SDS011;1760;52.480;13.422;2023-11-19T09:51:48;3.93;;;2.80;;
3491;SDS011;1760;52.480;13.422;2023-11-19T09:54:15;3.80;;;2.57;;
3491;SDS011;1760;52.480;13.422;2023-11-19T09:56:44;3.13;;;2.80;;
3491;SDS011;1760;52.480;13.422;2023-11-19T09:59:11;3.30;;;2.20;;
3491;SDS011;1760;52.480;13.422;2023-11-19T10:01:38;2.33;;;2.03;;
3491;SDS011;1760;52.480;13.422;2023-11-19T10:04:06;2.73;;;1.90;;
3491;SDS011;1760;52.480;13.422;2023-11-19T10:06:33;6.63;;;2.20;;
3491;SDS011;1760;52.480;13.422;2023-11-19T10:09:00;5.10;;;2.10;;
3491;SDS011;1760;52.480;13.422;2023-11-19T10:11:29;3.33;;;2.47;;
3491;SDS011;1760;52.480;13.422;2023-11-19T10:13:58;6.73;;;2.03;;
3491;SDS011;1760;52.480;13.422;2023-11-19T10:16:28;4.80;;;2.80;;
3491;SDS011;1760;52.480;13.422;2023-11-19T10:18:56;4.30;;;2.53;;
3491;SDS011;1760;52.480;13.422;2023-11-19T10:21:23;4.20;;;3.00;;
3491;SDS011;1760;52.480;13.422;2023-11-19T10:23:53;6.33;;;3.50;;
3491;SDS011;1760;52.480;13.422;2023-11-19T10:26:22;5.90;;;3.20;;
3491;SDS011;1760;52.480;13.422;2023-11-19T10:28:51;4.03;;;2.73;;
3491;SDS011;1760;52.480;13.422;2023-11-19T10:31:20;4.40;;;2.30;;
3491;SDS011;1760;52.480;13.422;2023-11-19T10:33:50;3.87;;;2.70;;
3491;SDS011;1760;52.480;13.422;2023-11-19T10:36:17;3.60;;;3.10;;
3491;SDS011;1760;52.480;13.422;2023-11-19T10:38:54;4.33;;;2.63;;
3491;SDS011;1760;52.480;13.422;2023-11-19T10:41:31;8.47;;;4.10;;
3491;SDS011;1760;52.480;13.422;2023-11-19T10:43:59;4.30;;;2.17;;
3491;SDS011;1760;52.480;13.422;2023-11-19T10:46:37;3.73;;;2.53;;
3491;SDS011;1760;52.480;13.422;2023-11-19T10:49:05;5.57;;;3.17;;
3491;SDS011;1760;52.480;13.422;2023-11-19T10:51:33;12.90;;;2.47;;
3491;SDS011;1760;52.480;13.422;2023-11-19T10:54:01;5.00;;;2.30;;
3491;SDS011;1760;52.480;13.422;2023-11-19T10:56:30;3.97;;;2.20;;
3491;SDS011;1760;52.480;13.422;2023-11-19T10:58:58;6.20;;;2.60;;
3491;SDS011;1760;52.480;13.422;2023-11-19T11:01:26;4.63;;;2.87;;
3491;SDS011;1760;52.480;13.422;2023-11-19T11:04:00;3.33;;;2.20;;
3491;SDS011;1760;52.480;13.422;2023-11-19T11:06:29;8.37;;;2.67;;
3491;SDS011;1760;52.480;13.422;2023-11-19T11:08:56;8.93;;;3.07;;
3491;SDS011;1760;52.480;13.422;2023-11-19T11:11:25;6.17;;;3.50;;
3491;SDS011;1760;52.480;13.422;2023-11-19T11:13:53;4.60;;;2.30;;
3491;SDS011;1760;52.480;13.422;2023-11-19T11:16:22;7.50;;;2.53;;
3491;SDS011;1760;52.480;13.422;2023-11-19T11:18:51;4.47;;;2.90;;
3491;SDS011;1760;52.480;13.422;2023-11-19T11:21:21;6.23;;;2.63;;
3491;SDS011;1760;52.480;13.422;2023-11-19T11:27:02;5.73;;;2.00;;
3491;SDS011;1760;52.480;13.422;2023-11-19T11:29:46;10.60;;;3.40;;
3491;SDS011;1760;52.480;13.422;2023-11-19T11:32:25;6.37;;;2.60;;
3491;SDS011;1760;52.480;13.422;2023-11-19T11:35:08;8.10;;;3.70;;
3491;SDS011;1760;52.480;13.422;2023-11-19T11:37:55;7.97;;;2.87;;
3491;SDS011;1760;52.480;13.422;2023-11-19T11:40:28;6.67;;;2.60;;
3491;SDS011;1760;52.480;13.422;2023-11-19T11:42:55;9.53;;;3.10;;
3491;SDS011;1760;52.480;13.422;2023-11-19T11:45:34;7.43;;;2.43;;
3491;SDS011;1760;52.480;13.422;2023-11-19T11:48:12;9.67;;;2.90;;
3491;SDS011;1760;52.480;13.422;2023-11-19T11:50:48;6.20;;;2.60;;
3491;SDS011;1760;52.480;13.422;2023-11-19T11:53:18;7.27;;;2.70;;
3491;SDS011;1760;52.480;13.422;2023-11-19T11:55:54;8.47;;;3.27;;
3491;SDS011;1760;52.480;13.422;2023-11-19T11:58:34;9.30;;;2.83;;
3491;SDS011;1760;52.480;13.422;2023-11-19T12:01:04;10.17;;;3.03;;
3491;SDS011;1760;52.480;13.422;2023-11-19T12:03:34;12.03;;;3.73;;
3491;SDS011;1760;52.480;13.422;2023-11-19T12:06:01;8.17;;;3.07;;
3491;SDS011;1760;52.480;13.422;2023-11-19T12:08:29;7.57;;;3.13;;
3491;SDS011;1760;52.480;13.422;2023-11-19T12:10:57;13.83;;;4.33;;
3491;SDS011;1760;52.480;13.422;2023-11-19T12:13:25;9.03;;;2.87;;
3491;SDS011;1760;52.480;13.422;2023-11-19T12:16:10;10.83;;;3.30;;
3491;SDS011;1760;52.480;13.422;2023-11-19T12:18:38;11.03;;;4.00;;
3491;SDS011;1760;52.480;13.422;2023-11-19T12:21:06;29.03;;;4.80;;
3491;SDS011;1760;52.480;13.422;2023-11-19T12:23:36;11.20;;;3.33;;
3491;SDS011;1760;52.480;13.422;2023-11-19T12:29:06;9.47;;;3.97;;
3491;SDS011;1760;52.480;13.422;2023-11-19T12:31:33;8.77;;;3.33;;
3491;SDS011;1760;52.480;13.422;2023-11-19T12:34:07;7.80;;;2.77;;
3491;SDS011;1760;52.480;13.422;2023-11-19T12:36:36;6.23;;;3.00;;
3491;SDS011;1760;52.480;13.422;2023-11-19T12:39:07;10.10;;;3.33;;
3491;SDS011;1760;52.480;13.422;2023-11-19T12:41:48;9.33;;;3.40;;
3491;SDS011;1760;52.480;13.422;2023-11-19T12:44:19;10.07;;;4.17;;
3491;SDS011;1760;52.480;13.422;2023-11-19T12:46:58;9.23;;;3.10;;
3491;SDS011;1760;52.480;13.422;2023-11-19T12:49:29;6.27;;;3.53;;
3491;SDS011;1760;52.480;13.422;2023-11-19T12:51:56;11.77;;;3.03;;
3491;SDS011;1760;52.480;13.422;2023-11-19T12:54:32;14.53;;;3.10;;
3491;SDS011;1760;52.480;13.422;2023-11-19T12:57:00;3.43;;;2.50;;
3491;SDS011;1760;52.480;13.422;2023-11-19T12:59:27;11.53;;;2.70;;
3491;SDS011;1760;52.480;13.422;2023-11-19T13:01:55;5.53;;;2.87;;
3491;SDS011;1760;52.480;13.422;2023-11-19T13:04:22;14.73;;;3.57;;
3491;SDS011;1760;52.480;13.422;2023-11-19T13:06:53;12.77;;;2.80;;
3491;SDS011;1760;52.480;13.422;2023-11-19T13:09:22;7.23;;;3.30;;
3491;SDS011;1760;52.480;13.422;2023-11-19T13:11:51;6.63;;;2.37;;
3491;SDS011;1760;52.480;13.422;2023-11-19T13:14:18;15.03;;;2.90;;
3491;SDS011;1760;52.480;13.422;2023-11-19T13:16:46;21.50;;;3.47;;
3491;SDS011;1760;52.480;13.422;2023-11-19T13:19:13;10.20;;;3.63;;
3491;SDS011;1760;52.480;13.422;2023-11-19T13:21:41;11.27;;;4.07;;
3491;SDS011;1760;52.480;13.422;2023-11-19T13:24:11;13.20;;;3.80;;
3491;SDS011;1760;52.480;13.422;2023-11-19T13:26:38;15.30;;;3.57;;
3491;SDS011;1760;52.480;13.422;2023-11-19T13:29:06;8.03;;;2.60;;
3491;SDS011;1760;52.480;13.422;2023-11-19T13:31:35;7.60;;;3.67;;
3491;SDS011;1760;52.480;13.422;2023-11-19T13:34:02;7.50;;;3.10;;
3491;SDS011;1760;52.480;13.422;2023-11-19T13:36:29;6.97;;;2.90;;
3491;SDS011;1760;52.480;13.422;2023-11-19T13:38:56;15.37;;;3.40;;
3491;SDS011;1760;52.480;13.422;2023-11-19T13:41:24;9.97;;;3.67;;
3491;SDS011;1760;52.480;13.422;2023-11-19T13:43:51;11.80;;;2.77;;
3491;SDS011;1760;52.480;13.422;2023-11-19T13:46:20;6.30;;;3.93;;
3491;SDS011;1760;52.480;13.422;2023-11-19T13:48:46;11.47;;;3.80;;
3491;SDS011;1760;52.480;13.422;2023-11-19T13:51:14;14.00;;;3.60;;
3491;SDS011;1760;52.480;13.422;2023-11-19T13:53:41;7.87;;;3.07;;
3491;SDS011;1760;52.480;13.422;2023-11-19T13:56:09;7.40;;;2.80;;
3491;SDS011;1760;52.480;13.422;2023-11-19T13:58:36;13.13;;;3.90;;
3491;SDS011;1760;52.480;13.422;2023-11-19T14:01:03;10.00;;;3.67;;
3491;SDS011;1760;52.480;13.422;2023-11-19T14:03:32;13.60;;;4.23;;
3491;SDS011;1760;52.480;13.422;2023-11-19T14:05:59;13.27;;;3.97;;
3491;SDS011;1760;52.480;13.422;2023-11-19T14:08:27;14.67;;;3.00;;
3491;SDS011;1760;52.480;13.422;2023-11-19T14:10:54;15.30;;;4.20;;
3491;SDS011;1760;52.480;13.422;2023-11-19T14:13:22;11.93;;;3.80;;
3491;SDS011;1760;52.480;13.422;2023-11-19T14:15:49;23.63;;;5.60;;
3491;SDS011;1760;52.480;13.422;2023-11-19T14:18:16;15.77;;;3.77;;
3491;SDS011;1760;52.480;13.422;2023-11-19T14:20:44;24.30;;;4.37;;
3491;SDS011;1760;52.480;13.422;2023-11-19T14:23:11;11.90;;;3.33;;
3491;SDS011;1760;52.480;13.422;2023-11-19T14:25:38;12.17;;;4.13;;
3491;SDS011;1760;52.480;13.422;2023-11-19T14:28:05;13.30;;;4.80;;
3491;SDS011;1760;52.480;13.422;2023-11-19T14:30:32;9.33;;;4.03;;
3491;SDS011;1760;52.480;13.422;2023-11-19T14:33:00;15.43;;;5.47;;
3491;SDS011;1760;52.480;13.422;2023-11-19T14:35:28;9.47;;;3.70;;
3491;SDS011;1760;52.480;13.422;2023-11-19T14:37:56;17.03;;;3.67;;
3491;SDS011;1760;52.480;13.422;2023-11-19T14:40:23;17.97;;;4.43;;
3491;SDS011;1760;52.480;13.422;2023-11-19T14:42:50;24.60;;;4.17;;
3491;SDS011;1760;52.480;13.422;2023-11-19T14:45:17;14.13;;;4.47;;
3491;SDS011;1760;52.480;13.422;2023-11-19T14:47:44;15.97;;;3.50;;
3491;SDS011;1760;52.480;13.422;2023-11-19T14:50:11;11.13;;;3.23;;
3491;SDS011;1760;52.480;13.422;2023-11-19T14:52:38;14.10;;;4.03;;
3491;SDS011;1760;52.480;13.422;2023-11-19T14:55:07;10.93;;;3.60;;
3491;SDS011;1760;52.480;13.422;2023-11-19T14:57:34;11.43;;;3.37;;
3491;SDS011;1760;52.480;13.422;2023-11-19T15:00:04;12.87;;;3.30;;
3491;SDS011;1760;52.480;13.422;2023-11-19T15:02:38;25.50;;;3.83;;
3491;SDS011;1760;52.480;13.422;2023-11-19T15:05:06;6.37;;;3.53;;
3491;SDS011;1760;52.480;13.422;2023-11-19T15:07:34;11.20;;;3.07;;
3491;SDS011;1760;52.480;13.422;2023-11-19T15:10:01;13.60;;;4.03;;